Time;durP1;ratioP1;P1;durP2;ratioP2;P2;SDS_P1;SDS_P2;PMS_P1;PMS_P2;Temp;Humidity;BMP_temperature;BMP_pressure;BME280_temperature;BME280_humidity;BME280_pressure;Samples;Min_cycle;Max_cycle;Signal;HPM_P1;HPM_P2
2021/10/29 00:00:33;;;;;;;11.93;9.43;;;7.90;99.90;;;;;;5068755;28;20029;-50
2021/10/29 00:02:58;;;;;;;13.23;9.10;;;7.90;99.90;;;;;;5069234;28;20476;-51
2021/10/29 00:05:24;;;;;;;11.40;9.65;;;7.90;99.90;;;;;;5069296;28;20036;-50
2021/10/29 00:07:50;;;;;;;13.32;9.18;;;7.90;99.90;;;;;;5066652;28;20028;-51
2021/10/29 00:10:16;;;;;;;10.93;8.63;;;7.90;99.90;;;;;;5069186;28;20419;-50
2021/10/29 00:12:43;;;;;;;13.88;9.20;;;7.90;99.90;;;;;;5069172;28;20560;-52
2021/10/29 00:15:09;;;;;;;10.18;8.60;;;7.90;99.90;;;;;;5069293;28;20035;-50
2021/10/29 00:17:35;;;;;;;13.63;9.55;;;7.80;99.90;;;;;;5069270;28;20036;-50
2021/10/29 00:20:01;;;;;;;10.45;9.35;;;7.80;99.90;;;;;;5067457;28;20393;-52
2021/10/29 00:22:26;;;;;;;11.05;9.80;;;7.80;99.90;;;;;;5062311;28;20455;-51
2021/10/29 00:24:52;;;;;;;14.57;9.38;;;7.80;99.90;;;;;;5056451;28;20112;-50
2021/10/29 00:27:18;;;;;;;11.50;8.40;;;7.80;99.90;;;;;;5065364;28;20115;-52
2021/10/29 00:29:44;;;;;;;15.48;9.80;;;7.80;99.90;;;;;;5082155;28;20021;-52
2021/10/29 00:32:09;;;;;;;12.50;9.98;;;7.80;99.90;;;;;;5059069;28;20043;-51
2021/10/29 00:34:35;;;;;;;11.25;10.07;;;7.80;99.90;;;;;;5067388;28;20032;-50
2021/10/29 00:37:01;;;;;;;10.60;8.88;;;7.80;99.90;;;;;;5067342;28;20020;-51
2021/10/29 00:39:26;;;;;;;11.45;8.75;;;7.70;99.90;;;;;;5072702;28;20031;-51
2021/10/29 00:41:52;;;;;;;11.43;9.48;;;7.70;99.90;;;;;;5078160;28;20043;-51
2021/10/29 00:44:25;;;;;;;13.68;9.05;;;7.60;99.90;;;;;;5069058;28;20024;-50
2021/10/29 00:46:52;;;;;;;10.43;9.35;;;7.60;99.90;;;;;;5067364;28;20455;-52
2021/10/29 00:49:18;;;;;;;13.18;10.18;;;7.60;99.90;;;;;;5068641;28;20082;-51
2021/10/29 00:51:44;;;;;;;11.55;9.77;;;7.60;99.90;;;;;;5068230;28;20528;-50
2021/10/29 00:54:15;;;;;;;11.43;9.90;;;7.60;99.90;;;;;;5068750;28;20082;-50
2021/10/29 00:56:41;;;;;;;13.32;10.25;;;7.60;99.90;;;;;;5068429;28;20463;-49
2021/10/29 00:59:07;;;;;;;11.57;10.07;;;7.60;99.90;;;;;;5063663;28;20040;-50
2021/10/29 01:01:32;;;;;;;13.98;10.02;;;7.60;99.90;;;;;;5066198;28;20091;-51
2021/10/29 01:03:58;;;;;;;15.02;10.25;;;7.60;99.90;;;;;;5066059;28;20056;-51
2021/10/29 01:06:24;;;;;;;15.20;10.50;;;7.60;99.90;;;;;;5067376;28;20029;-51
2021/10/29 01:08:50;;;;;;;10.63;9.35;;;7.50;99.90;;;;;;5068247;28;20032;-51
2021/10/29 01:11:17;;;;;;;14.15;9.45;;;7.50;99.90;;;;;;5067441;28;20044;-50
2021/10/29 01:13:45;;;;;;;11.65;8.98;;;7.50;99.90;;;;;;5067955;28;20024;-50
2021/10/29 01:16:11;;;;;;;11.52;8.93;;;7.50;99.90;;;;;;5068235;28;20031;-50
2021/10/29 01:18:37;;;;;;;16.10;10.50;;;7.50;99.90;;;;;;5068226;28;20075;-51
2021/10/29 01:21:02;;;;;;;13.60;10.50;;;7.40;99.90;;;;;;5068024;28;20449;-49
2021/10/29 01:23:28;;;;;;;12.77;9.75;;;7.50;99.90;;;;;;5068052;28;20035;-50
2021/10/29 01:26:01;;;;;;;12.60;9.30;;;7.40;99.90;;;;;;5068234;28;20510;-52
2021/10/29 01:28:27;;;;;;;15.18;10.50;;;7.40;99.90;;;;;;5067941;28;20094;-53
2021/10/29 01:30:52;;;;;;;14.52;10.10;;;7.40;99.90;;;;;;5066519;28;20029;-51
2021/10/29 01:33:18;;;;;;;13.15;9.70;;;7.40;99.90;;;;;;5066563;28;20028;-52
2021/10/29 01:35:44;;;;;;;11.75;9.68;;;7.30;99.90;;;;;;5066462;28;20025;-50
2021/10/29 01:38:09;;;;;;;11.77;9.48;;;7.30;99.90;;;;;;5067708;28;20093;-53
2021/10/29 01:40:35;;;;;;;14.13;10.20;;;7.30;99.90;;;;;;5076930;28;20028;-51
2021/10/29 01:43:00;;;;;;;12.10;9.77;;;7.30;99.90;;;;;;5065649;28;20532;-51
2021/10/29 01:45:26;;;;;;;13.73;9.88;;;7.30;99.90;;;;;;5065625;28;20090;-53
2021/10/29 01:47:52;;;;;;;11.57;10.25;;;7.30;99.90;;;;;;5067311;28;20040;-49
2021/10/29 01:50:17;;;;;;;13.80;10.00;;;7.20;99.90;;;;;;5067413;28;20145;-50
2021/10/29 01:52:43;;;;;;;17.15;9.95;;;7.20;99.90;;;;;;5067486;28;20060;-50
2021/10/29 01:55:08;;;;;;;12.73;10.05;;;7.20;99.90;;;;;;5067537;28;20096;-50
2021/10/29 01:57:35;;;;;;;11.80;10.52;;;7.20;99.90;;;;;;5067393;28;20112;-51
2021/10/29 02:00:02;;;;;;;12.18;9.85;;;7.10;99.90;;;;;;5067379;28;20419;-50
2021/10/29 02:02:27;;;;;;;15.50;10.50;;;7.10;99.90;;;;;;5067739;28;20024;-50
2021/10/29 02:04:53;;;;;;;16.30;11.18;;;7.10;99.90;;;;;;5066854;28;20035;-50
2021/10/29 02:07:19;;;;;;;13.18;10.40;;;7.10;99.90;;;;;;5066842;28;20071;-48
2021/10/29 02:09:44;;;;;;;14.63;10.65;;;7.10;99.90;;;;;;5066705;28;20113;-52
2021/10/29 02:12:10;;;;;;;12.60;10.15;;;7.10;99.90;;;;;;5067673;28;20029;-50
2021/10/29 02:14:36;;;;;;;13.30;10.82;;;7.10;99.90;;;;;;5067719;28;20289;-51
2021/10/29 02:17:01;;;;;;;13.00;11.30;;;7.10;99.90;;;;;;5067165;28;20091;-51
2021/10/29 02:19:27;;;;;;;15.05;10.00;;;7.10;99.90;;;;;;5067055;28;20036;-50
2021/10/29 02:21:53;;;;;;;14.10;11.30;;;7.00;99.90;;;;;;5067317;28;20031;-50
2021/10/29 02:24:18;;;;;;;15.20;11.75;;;7.00;99.90;;;;;;5067055;28;20059;-51
2021/10/29 02:26:44;;;;;;;18.42;11.18;;;7.00;99.90;;;;;;5066705;28;20403;-51
2021/10/29 02:29:10;;;;;;;15.55;11.80;;;7.00;99.90;;;;;;5066486;28;20021;-50
2021/10/29 02:31:39;;;;;;;15.73;11.77;;;7.00;99.90;;;;;;5070361;28;20035;-53
2021/10/29 02:34:05;;;;;;;16.17;11.15;;;7.00;99.90;;;;;;5068687;28;20047;-51
2021/10/29 02:36:30;;;;;;;14.23;11.20;;;7.00;99.90;;;;;;5070804;28;20036;-50
2021/10/29 02:38:57;;;;;;;14.07;11.05;;;7.00;99.90;;;;;;5070455;28;20036;-49
2021/10/29 02:41:22;;;;;;;13.13;10.93;;;7.00;99.90;;;;;;5074112;28;20032;-51
2021/10/29 02:43:48;;;;;;;15.98;11.15;;;6.90;99.90;;;;;;5070897;28;20162;-51
2021/10/29 02:46:14;;;;;;;14.43;11.25;;;6.90;99.90;;;;;;5070327;28;20032;-54
2021/10/29 02:48:40;;;;;;;16.85;11.73;;;6.90;99.90;;;;;;5070689;28;20036;-52
2021/10/29 02:51:06;;;;;;;14.30;11.40;;;6.80;99.90;;;;;;5070631;28;20036;-50
2021/10/29 02:53:33;;;;;;;17.85;11.82;;;6.80;99.90;;;;;;5069195;28;20016;-50
2021/10/29 02:55:59;;;;;;;14.73;11.25;;;6.80;99.90;;;;;;5070988;28;20668;-50
2021/10/29 02:58:30;;;;;;;16.23;11.63;;;6.80;99.90;;;;;;5070447;28;20025;-50
2021/10/29 03:00:57;;;;;;;14.85;12.07;;;6.80;99.90;;;;;;5050540;28;20047;-51
2021/10/29 03:03:23;;;;;;;16.65;11.15;;;6.80;99.90;;;;;;5062280;28;20044;-49
2021/10/29 03:05:50;;;;;;;16.25;11.65;;;6.80;99.90;;;;;;5070209;28;20036;-49
2021/10/29 03:08:16;;;;;;;15.95;11.80;;;6.70;99.90;;;;;;5069885;28;20036;-52
2021/10/29 03:10:41;;;;;;;14.00;11.30;;;6.70;99.90;;;;;;5070126;28;20548;-51
2021/10/29 03:13:07;;;;;;;16.58;12.00;;;6.70;99.90;;;;;;5070149;28;20511;-50
2021/10/29 03:15:33;;;;;;;15.77;11.32;;;6.70;99.90;;;;;;5068976;28;20036;-52
2021/10/29 03:17:58;;;;;;;15.27;11.60;;;6.70;99.90;;;;;;5070328;28;20089;-54
2021/10/29 03:20:24;;;;;;;17.02;12.13;;;6.60;99.90;;;;;;5069943;28;20530;-50
2021/10/29 03:22:50;;;;;;;16.08;11.93;;;6.70;99.90;;;;;;5070249;28;20564;-54
2021/10/29 03:25:16;;;;;;;16.73;12.63;;;6.60;99.90;;;;;;5070562;28;20030;-53
2021/10/29 03:27:43;;;;;;;18.80;13.10;;;6.60;99.90;;;;;;5069852;28;20507;-51
2021/10/29 03:30:10;;;;;;;17.35;12.07;;;6.60;99.90;;;;;;5069983;28;20024;-52
2021/10/29 03:32:35;;;;;;;13.13;11.63;;;6.60;99.90;;;;;;5068240;28;20021;-49
2021/10/29 03:35:02;;;;;;;16.88;12.32;;;6.60;99.90;;;;;;5070148;28;20032;-50
2021/10/29 03:40:15;;;;;;;18.50;13.43;;;6.50;99.90;;;;;;5070636;28;20043;-50
2021/10/29 03:42:50;;;;;;;21.40;13.40;;;6.50;99.90;;;;;;5068603;28;20016;-49
2021/10/29 03:45:18;;;;;;;16.08;12.93;;;6.40;99.90;;;;;;5069752;28;20107;-54
2021/10/29 03:47:50;;;;;;;17.73;13.35;;;6.40;99.90;;;;;;5069991;28;20021;-50
2021/10/29 03:50:28;;;;;;;17.20;13.52;;;6.40;99.90;;;;;;5069956;28;20028;-50
2021/10/29 03:53:23;;;;;;;18.13;13.10;;;6.40;99.90;;;;;;5068238;28;20103;-51
2021/10/29 03:55:48;;;;;;;22.38;13.88;;;6.40;99.90;;;;;;5069572;28;20016;-51
2021/10/29 03:58:14;;;;;;;17.70;13.20;;;6.40;99.90;;;;;;5069414;28;20103;-51
2021/10/29 04:00:40;;;;;;;17.88;13.70;;;6.30;99.90;;;;;;5069700;28;20032;-54
2021/10/29 04:03:05;;;;;;;16.65;13.18;;;6.30;99.90;;;;;;5069960;28;20028;-48
2021/10/29 04:05:33;;;;;;;16.95;13.15;;;6.30;99.90;;;;;;5069290;28;20468;-50
2021/10/29 04:07:59;;;;;;;19.27;13.55;;;6.30;99.90;;;;;;5069084;28;20036;-50
2021/10/29 04:10:27;;;;;;;19.08;13.55;;;6.30;99.90;;;;;;5068674;28;20428;-48
2021/10/29 04:12:54;;;;;;;20.65;14.52;;;6.30;99.90;;;;;;5069254;28;20036;-50
2021/10/29 04:15:20;;;;;;;20.08;14.63;;;6.30;99.90;;;;;;5069976;28;20023;-52
2021/10/29 04:17:46;;;;;;;20.45;14.98;;;6.30;99.90;;;;;;5069695;28;20107;-51
2021/10/29 04:20:11;;;;;;;18.23;14.48;;;6.20;99.90;;;;;;5069109;28;20657;-53
2021/10/29 04:22:37;;;;;;;18.80;14.02;;;6.20;99.90;;;;;;5068673;28;20112;-50
2021/10/29 04:25:03;;;;;;;21.75;14.02;;;6.20;99.90;;;;;;5069375;28;20016;-50
2021/10/29 04:27:32;;;;;;;19.05;14.38;;;6.20;99.90;;;;;;5068877;28;20543;-55
2021/10/29 04:30:00;;;;;;;21.95;15.82;;;6.10;99.90;;;;;;5068410;28;20050;-48
2021/10/29 04:32:26;;;;;;;17.67;14.52;;;6.10;99.90;;;;;;5068154;28;20081;-49
2021/10/29 04:34:52;;;;;;;22.75;15.25;;;6.10;99.90;;;;;;5066252;28;20033;-50
2021/10/29 04:37:18;;;;;;;19.50;14.32;;;6.10;99.90;;;;;;5067158;28;20028;-49
2021/10/29 04:39:46;;;;;;;21.88;15.48;;;6.10;99.90;;;;;;5068033;28;20033;-51
2021/10/29 04:42:11;;;;;;;20.98;15.40;;;6.10;99.90;;;;;;5066466;28;20024;-49
2021/10/29 04:44:37;;;;;;;26.15;16.50;;;6.10;99.90;;;;;;5068100;28;20029;-51
2021/10/29 04:47:03;;;;;;;21.58;14.77;;;6.10;99.90;;;;;;5067317;28;20029;-50
2021/10/29 04:49:29;;;;;;;28.23;16.67;;;6.10;99.90;;;;;;5067364;28;20027;-52
2021/10/29 04:51:54;;;;;;;26.02;16.67;;;6.10;99.90;;;;;;5067430;28;20109;-50
2021/10/29 04:54:20;;;;;;;21.52;16.58;;;6.00;99.90;;;;;;5067394;28;20099;-52
2021/10/29 04:56:47;;;;;;;23.63;16.27;;;6.00;99.90;;;;;;5068146;28;20067;-51
2021/10/29 04:59:15;;;;;;;23.70;16.98;;;6.00;99.90;;;;;;5067943;28;20111;-52
2021/10/29 05:01:43;;;;;;;22.40;15.80;;;6.00;99.90;;;;;;5068642;28;20032;-51
2021/10/29 05:04:09;;;;;;;21.83;15.48;;;6.00;99.90;;;;;;5068219;28;20021;-53
2021/10/29 05:06:35;;;;;;;22.10;15.70;;;6.00;99.90;;;;;;5068218;28;20093;-49
2021/10/29 05:09:00;;;;;;;22.63;16.02;;;6.00;99.90;;;;;;5068520;28;20078;-54
2021/10/29 05:11:26;;;;;;;22.73;16.52;;;6.00;99.90;;;;;;5066630;28;20740;-50
2021/10/29 05:13:52;;;;;;;20.52;15.20;;;6.00;99.90;;;;;;5068288;28;20033;-51
2021/10/29 05:16:17;;;;;;;25.30;16.15;;;6.00;99.90;;;;;;5068008;28;20025;-49
2021/10/29 05:18:43;;;;;;;23.75;15.95;;;5.90;99.90;;;;;;5068198;28;20029;-52
2021/10/29 05:21:08;;;;;;;22.33;15.70;;;5.90;99.90;;;;;;5066571;28;20029;-51
2021/10/29 05:23:34;;;;;;;24.42;16.95;;;5.90;99.90;;;;;;5067642;28;20021;-51
2021/10/29 05:26:00;;;;;;;23.42;16.52;;;5.90;99.90;;;;;;5068221;28;20447;-53
2021/10/29 05:28:25;;;;;;;22.92;16.73;;;5.90;99.90;;;;;;5067948;28;20033;-49
2021/10/29 05:30:51;;;;;;;19.15;15.55;;;5.90;99.90;;;;;;5068072;28;20027;-49
2021/10/29 05:33:16;;;;;;;21.02;16.13;;;5.90;99.90;;;;;;5067974;28;20029;-52
2021/10/29 05:35:42;;;;;;;23.63;15.98;;;5.80;99.90;;;;;;5068067;28;20130;-52
2021/10/29 05:38:08;;;;;;;22.52;16.08;;;5.90;99.90;;;;;;5067939;28;20059;-51
2021/10/29 05:40:33;;;;;;;22.77;16.13;;;5.90;99.90;;;;;;5079262;28;20047;-49
2021/10/29 05:42:59;;;;;;;23.50;15.88;;;5.80;99.90;;;;;;5067392;28;20123;-53
2021/10/29 05:45:25;;;;;;;23.05;16.52;;;5.80;99.90;;;;;;5067845;28;20037;-51
2021/10/29 05:47:50;;;;;;;22.13;15.48;;;5.80;99.90;;;;;;5067685;28;20115;-53
2021/10/29 05:50:16;;;;;;;24.10;15.73;;;5.80;99.90;;;;;;5066021;28;20503;-50
2021/10/29 05:52:44;;;;;;;26.48;16.42;;;5.80;99.90;;;;;;5067211;28;20021;-52
2021/10/29 05:55:17;;;;;;;23.00;14.55;;;5.80;99.90;;;;;;5067073;28;20239;-51
2021/10/29 05:57:45;;;;;;;23.77;16.95;;;5.80;99.90;;;;;;5067407;28;20028;-51
2021/10/29 06:00:11;;;;;;;23.77;16.38;;;5.80;99.90;;;;;;5067330;28;20036;-50
2021/10/29 06:02:38;;;;;;;23.00;16.13;;;5.80;99.90;;;;;;5065382;28;20032;-53
2021/10/29 06:05:04;;;;;;;23.30;15.82;;;5.80;99.90;;;;;;5067152;28;20038;-50
2021/10/29 06:07:31;;;;;;;24.55;15.63;;;5.80;99.90;;;;;;5069538;28;20028;-51
2021/10/29 06:09:56;;;;;;;27.75;16.83;;;5.80;99.90;;;;;;5061936;28;20060;-51
2021/10/29 06:12:22;;;;;;;24.13;15.95;;;5.80;99.90;;;;;;5070744;28;20052;-51
2021/10/29 06:14:48;;;;;;;22.73;16.63;;;5.70;99.90;;;;;;5070838;28;20039;-50
2021/10/29 06:17:17;;;;;;;21.92;15.77;;;5.70;99.90;;;;;;5070682;28;20033;-50
2021/10/29 06:19:43;;;;;;;23.65;16.23;;;5.70;99.90;;;;;;5069717;28;20074;-49
2021/10/29 06:22:19;;;;;;;24.98;17.25;;;5.70;99.90;;;;;;5070252;28;20032;-50
2021/10/29 06:24:46;;;;;;;22.08;16.40;;;5.70;99.90;;;;;;5070164;28;20040;-48
2021/10/29 06:29:57;;;;;;;22.63;16.27;;;5.70;99.90;;;;;;5028889;28;20040;-50
2021/10/29 06:32:23;;;;;;;27.17;17.08;;;5.70;99.90;;;;;;5069938;28;20037;-50
2021/10/29 06:34:49;;;;;;;27.73;17.98;;;5.70;99.90;;;;;;5070225;28;20051;-52
2021/10/29 06:37:16;;;;;;;22.95;16.02;;;5.80;99.90;;;;;;5070023;28;20032;-53
2021/10/29 06:39:43;;;;;;;24.52;16.70;;;5.70;99.90;;;;;;5069539;28;20029;-50
2021/10/29 06:42:14;;;;;;;24.00;16.88;;;5.70;99.90;;;;;;5070333;28;20029;-49
2021/10/29 06:47:39;;;;;;;26.40;16.83;;;5.80;99.90;;;;;;5070108;28;20103;-49
2021/10/29 07:01:20;;;;;;;23.80;15.70;;;5.80;99.90;;;;;;5033824;28;20034;-51
2021/10/29 07:42:07;;;;;;;25.23;16.88;;;6.40;99.90;;;;;;5090466;28;20121;-51
2021/10/29 07:44:34;;;;;;;23.50;15.80;;;6.40;99.90;;;;;;5090356;28;20016;-50
2021/10/29 07:47:00;;;;;;;24.33;15.85;;;6.50;99.90;;;;;;5089933;28;20028;-50
2021/10/29 07:49:29;;;;;;;24.38;16.67;;;6.60;99.90;;;;;;5089929;28;20020;-50
2021/10/29 07:51:56;;;;;;;24.13;16.13;;;6.60;99.90;;;;;;5090256;28;20017;-52
2021/10/29 07:54:23;;;;;;;23.25;15.32;;;6.70;99.90;;;;;;5089612;28;20024;-49
2021/10/29 07:56:50;;;;;;;27.77;16.52;;;6.70;99.90;;;;;;5089943;28;20562;-51
2021/10/29 07:59:16;;;;;;;26.30;16.45;;;6.80;99.90;;;;;;5089660;28;20056;-50
2021/10/29 08:01:42;;;;;;;23.25;16.08;;;6.90;99.90;;;;;;5089882;28;20070;-54
2021/10/29 08:04:07;;;;;;;25.70;16.40;;;6.90;99.90;;;;;;5089851;28;20028;-50
2021/10/29 08:06:33;;;;;;;23.13;15.82;;;7.00;99.90;;;;;;5089334;28;20016;-50
2021/10/29 08:09:01;;;;;;;26.13;17.27;;;7.10;99.90;;;;;;5089343;28;20145;-51
2021/10/29 08:11:27;;;;;;;21.10;14.35;;;7.20;99.90;;;;;;5079234;28;20785;-49
2021/10/29 08:13:53;;;;;;;22.52;15.90;;;7.30;99.90;;;;;;5069345;28;20020;-53
2021/10/29 08:16:18;;;;;;;22.35;15.70;;;7.30;99.90;;;;;;5068830;28;20039;-51
2021/10/29 08:18:45;;;;;;;22.23;15.15;;;7.40;99.90;;;;;;5069671;28;20021;-53
2021/10/29 08:21:13;;;;;;;24.27;14.75;;;7.50;99.90;;;;;;5068490;28;20024;-49
2021/10/29 08:23:41;;;;;;;20.58;14.75;;;7.70;99.90;;;;;;5069245;28;20133;-51
2021/10/29 08:26:08;;;;;;;20.58;14.52;;;7.90;99.90;;;;;;5069186;28;20119;-50
2021/10/29 08:28:33;;;;;;;21.40;13.38;;;8.00;99.90;;;;;;5066953;28;20043;-50
2021/10/29 08:31:00;;;;;;;20.92;14.70;;;8.20;99.90;;;;;;5066926;28;20107;-54
2021/10/29 08:33:26;;;;;;;19.77;14.23;;;8.30;99.90;;;;;;5068875;28;20021;-49
2021/10/29 08:35:51;;;;;;;17.70;12.75;;;8.40;99.90;;;;;;5064813;28;20078;-51
2021/10/29 08:38:19;;;;;;;18.90;12.38;;;8.60;99.90;;;;;;5061326;28;20381;-50
2021/10/29 08:40:45;;;;;;;18.13;12.55;;;8.70;99.90;;;;;;5060307;28;20071;-51
2021/10/29 08:43:11;;;;;;;17.33;11.93;;;8.80;99.90;;;;;;5058182;28;20029;-50
2021/10/29 08:45:38;;;;;;;19.75;11.70;;;8.90;99.90;;;;;;5057848;28;20052;-49
2021/10/29 08:48:05;;;;;;;15.82;11.23;;;9.00;99.90;;;;;;5058688;28;20060;-50
2021/10/29 08:50:30;;;;;;;15.65;10.88;;;9.10;99.90;;;;;;5057296;28;20017;-52
2021/10/29 08:52:56;;;;;;;17.55;11.45;;;9.20;99.90;;;;;;5057912;28;20395;-51
2021/10/29 08:55:27;;;;;;;22.67;11.88;;;9.30;99.90;;;;;;5058599;28;20056;-51
2021/10/29 08:57:53;;;;;;;16.60;10.18;;;9.40;99.90;;;;;;5059397;28;20092;-51
2021/10/29 09:00:28;;;;;;;17.80;11.85;;;9.40;99.90;;;;;;5057787;28;20040;-52
2021/10/29 09:03:03;;;;;;;19.10;12.25;;;9.50;99.90;;;;;;5059711;28;20182;-51
2021/10/29 09:08:31;;;;;;;17.90;10.48;;;9.60;99.90;;;;;;5031254;28;20053;-51
2021/10/29 09:11:22;;;;;;;15.93;10.13;;;9.70;99.90;;;;;;5058930;28;20460;-49
2021/10/29 09:34:01;;;;;;;16.23;9.98;;;10.30;99.90;;;;;;5057798;28;20178;-52
2021/10/29 09:36:41;;;;;;;15.70;8.98;;;10.30;99.90;;;;;;5058079;28;20021;-54
2021/10/29 09:39:09;;;;;;;14.38;9.30;;;10.40;99.90;;;;;;5059778;28;20025;-54
2021/10/29 09:41:36;;;;;;;13.65;9.38;;;10.50;99.90;;;;;;5061212;28;20152;-51
2021/10/29 09:44:09;;;;;;;16.48;9.48;;;10.60;99.90;;;;;;5062320;28;20423;-50
2021/10/29 09:46:45;;;;;;;15.27;8.90;;;10.60;99.90;;;;;;5061397;28;20029;-51
2021/10/29 09:49:16;;;;;;;13.63;9.70;;;10.70;99.90;;;;;;5061932;28;20489;-52
2021/10/29 09:55:46;;;;;;;12.93;9.18;;;10.90;99.90;;;;;;5060828;28;20025;-51
2021/10/29 09:57:37;;;;;;;12.38;7.80;;;11.00;99.90;;;;;;5055728;28;20047;-51
2021/10/29 10:00:10;;;;;;;13.30;8.52;;;11.00;99.90;;;;;;5062988;28;20384;-51
2021/10/29 10:02:40;;;;;;;11.23;7.53;;;11.10;99.90;;;;;;5062517;28;20024;-51
2021/10/29 10:05:07;;;;;;;11.38;7.68;;;11.20;99.90;;;;;;5061408;28;20396;-52
2021/10/29 10:07:35;;;;;;;9.80;7.65;;;11.20;99.90;;;;;;5060482;28;20057;-51
2021/10/29 10:10:02;;;;;;;10.77;7.70;;;11.30;99.90;;;;;;5063201;28;20495;-51
2021/10/29 10:12:30;;;;;;;11.23;8.38;;;11.40;99.90;;;;;;5063236;28;20077;-51
2021/10/29 10:14:59;;;;;;;11.15;7.75;;;11.40;99.90;;;;;;5062998;28;20374;-50
2021/10/29 10:17:25;;;;;;;11.27;7.40;;;11.50;99.90;;;;;;5061885;28;20047;-52
2021/10/29 10:19:52;;;;;;;13.77;7.82;;;11.60;99.90;;;;;;5060359;28;20033;-52
2021/10/29 10:22:20;;;;;;;12.32;8.10;;;11.60;99.90;;;;;;5060572;28;20052;-56
2021/10/29 10:24:55;;;;;;;11.82;7.93;;;11.70;99.90;;;;;;5061117;28;20032;-53
2021/10/29 10:27:47;;;;;;;11.65;7.13;;;11.70;99.90;;;;;;5061274;28;20021;-49
2021/10/29 10:30:22;;;;;;;10.55;6.70;;;11.80;99.90;;;;;;5060847;28;20032;-51
2021/10/29 10:41:53;;;;;;;9.70;6.88;;;12.00;99.90;;;;;;5061634;28;20162;-51
2021/10/29 10:46:58;;;;;;;12.35;7.88;;;12.20;99.90;;;;;;5062498;28;20033;-53
2021/10/29 10:50:10;;;;;;;10.10;7.45;;;12.30;99.90;;;;;;5061625;28;20033;-51
2021/10/29 10:53:04;;;;;;;11.30;6.68;;;12.30;99.90;;;;;;5056287;28;20128;-52
2021/10/29 10:55:51;;;;;;;9.00;6.35;;;12.40;99.90;;;;;;5061620;28;20631;-52
2021/10/29 10:58:30;;;;;;;11.05;6.88;;;12.50;99.90;;;;;;5061880;28;20033;-52
2021/10/29 11:01:32;;;;;;;11.32;6.57;;;12.50;99.90;;;;;;5062203;28;20063;-52
2021/10/29 11:10:08;;;;;;;8.70;5.97;;;12.70;99.90;;;;;;5059509;28;20021;-54
2021/10/29 11:12:40;;;;;;;8.85;5.55;;;12.80;99.90;;;;;;5059290;28;20024;-50
2021/10/29 11:15:18;;;;;;;7.82;5.93;;;12.80;99.90;;;;;;5060314;28;20013;-54
2021/10/29 11:17:55;;;;;;;7.50;5.90;;;12.90;99.90;;;;;;5059739;28;20036;-51
2021/10/29 11:20:37;;;;;;;10.65;7.10;;;13.00;99.90;;;;;;5059359;28;20629;-52
2021/10/29 11:23:05;;;;;;;7.55;5.40;;;13.10;99.90;;;;;;5059357;28;20052;-50
2021/10/29 11:25:50;;;;;;;8.25;6.20;;;13.20;99.90;;;;;;5060090;28;20024;-51
2021/10/29 11:28:16;;;;;;;7.72;5.45;;;13.20;99.90;;;;;;5059871;28;20024;-50
2021/10/29 11:30:46;;;;;;;7.47;5.30;;;13.30;99.90;;;;;;5061069;28;20029;-52
2021/10/29 11:33:14;;;;;;;6.68;5.10;;;13.30;99.90;;;;;;5060355;28;20159;-51
2021/10/29 11:35:41;;;;;;;7.30;5.43;;;13.40;99.90;;;;;;5060313;28;20114;-51
2021/10/29 11:38:09;;;;;;;8.52;5.47;;;13.40;99.90;;;;;;5061091;28;20029;-53
2021/10/29 11:40:35;;;;;;;9.43;5.63;;;13.40;99.90;;;;;;5060919;28;20094;-53
2021/10/29 11:43:01;;;;;;;7.30;5.38;;;13.40;99.90;;;;;;5060382;28;20467;-52
2021/10/29 11:45:36;;;;;;;10.82;4.88;;;13.50;99.90;;;;;;5060794;28;20095;-51
2021/10/29 11:48:05;;;;;;;6.07;4.88;;;13.50;99.90;;;;;;5061798;28;20028;-51
2021/10/29 11:50:31;;;;;;;5.97;4.90;;;13.60;99.90;;;;;;5060343;28;20093;-52
2021/10/29 11:53:00;;;;;;;6.05;4.93;;;13.60;99.90;;;;;;5061971;28;20119;-51
2021/10/29 11:55:51;;;;;;;7.03;4.75;;;13.70;99.90;;;;;;5061363;28;20028;-50
2021/10/29 11:58:23;;;;;;;10.07;5.13;;;13.70;99.90;;;;;;5060767;28;20037;-53
2021/10/29 12:08:50;;;;;;;7.18;4.95;;;14.00;99.90;;;;;;5058827;28;20534;-51
2021/10/29 12:11:18;;;;;;;8.32;5.35;;;14.10;99.90;;;;;;5058625;28;20029;-52
2021/10/29 12:13:44;;;;;;;6.97;5.90;;;14.10;99.90;;;;;;5059199;28;20036;-52
2021/10/29 12:16:19;;;;;;;7.28;5.40;;;14.20;99.90;;;;;;5059154;28;20080;-50
2021/10/29 12:19:03;;;;;;;8.43;4.95;;;14.30;99.90;;;;;;5059946;28;20017;-52
2021/10/29 12:21:34;;;;;;;7.35;5.13;;;14.30;99.90;;;;;;5059514;28;20110;-54
2021/10/29 12:24:04;;;;;;;7.05;4.63;;;14.30;99.90;;;;;;5059449;28;20063;-53
2021/10/29 12:26:36;;;;;;;8.35;5.05;;;14.30;99.90;;;;;;5059102;28;20025;-53
2021/10/29 12:29:11;;;;;;;6.72;5.20;;;14.30;99.90;;;;;;5059915;28;20103;-50
2021/10/29 12:32:06;;;;;;;7.80;4.60;;;14.40;99.90;;;;;;5060052;28;20067;-51
2021/10/29 12:36:33;;;;;;;6.78;4.95;;;14.40;99.90;;;;;;5058561;28;20515;-54
2021/10/29 12:38:28;;;;;;;5.90;4.55;;;14.40;99.90;;;;;;5059017;28;20043;-52
2021/10/29 13:04:00;;;;;;;5.00;4.20;;;14.50;99.90;;;;;;5009265;28;20033;-50
2021/10/29 13:06:33;;;;;;;5.28;4.07;;;14.40;99.90;;;;;;5051372;28;20496;-51
2021/10/29 13:09:00;;;;;;;4.00;3.60;;;14.40;99.90;;;;;;5059071;28;20063;-53
2021/10/29 13:11:31;;;;;;;5.97;3.85;;;14.40;99.90;;;;;;5057928;28;20688;-52
2021/10/29 13:14:00;;;;;;;6.38;3.72;;;14.40;99.90;;;;;;5059314;28;20036;-52
2021/10/29 13:16:27;;;;;;;6.25;4.38;;;14.40;99.90;;;;;;5059101;28;20039;-52
2021/10/29 13:37:57;;;;;;;5.63;3.58;;;14.60;99.90;;;;;;5059203;28;20372;-53
2021/10/29 13:51:22;;;;;;;4.18;3.13;;;14.50;99.90;;;;;;5056541;28;20550;-53
2021/10/29 13:54:01;;;;;;;5.47;3.13;;;14.50;99.90;;;;;;5058594;28;20024;-51
2021/10/29 14:28:40;;;;;;;4.18;3.00;;;14.40;99.90;;;;;;5062025;28;20124;-53
2021/10/29 14:31:09;;;;;;;4.07;3.30;;;14.40;99.90;;;;;;5062543;28;20434;-50
2021/10/29 14:33:42;;;;;;;3.72;3.05;;;14.40;99.90;;;;;;5062355;28;20033;-52
2021/10/29 14:36:10;;;;;;;5.10;3.10;;;14.30;99.90;;;;;;5061961;28;20021;-53
2021/10/29 14:38:48;;;;;;;4.20;3.20;;;14.30;99.90;;;;;;5062204;28;20063;-53
2021/10/29 14:41:22;;;;;;;6.68;3.63;;;14.20;99.90;;;;;;5062220;28;20439;-53
2021/10/29 14:43:57;;;;;;;4.93;3.38;;;14.20;99.90;;;;;;5057676;28;20033;-51
2021/10/29 14:46:45;;;;;;;4.20;3.00;;;14.10;99.90;;;;;;5060845;28;20111;-50
2021/10/29 14:49:33;;;;;;;3.22;2.92;;;14.10;99.90;;;;;;5057872;28;20538;-50
2021/10/29 15:03:12;;;;;;;3.92;3.00;;;13.80;99.90;;;;;;5019398;28;20036;-53
2021/10/29 15:45:46;;;;;;;3.80;2.85;;;13.00;99.90;;;;;;5059043;28;20047;-53
2021/10/29 15:50:44;;;;;;;3.60;2.47;;;12.90;99.90;;;;;;5060342;28;20028;-52
2021/10/29 15:53:12;;;;;;;4.50;2.70;;;12.90;99.90;;;;;;5060472;28;20033;-52
2021/10/29 15:55:49;;;;;;;5.43;2.63;;;12.80;99.90;;;;;;5060189;28;20447;-51
2021/10/29 15:58:37;;;;;;;3.22;2.72;;;12.80;99.90;;;;;;5060424;28;20025;-53
2021/10/29 16:01:12;;;;;;;2.95;2.60;;;12.70;99.90;;;;;;5060202;28;20020;-53
2021/10/29 16:03:51;;;;;;;6.90;3.05;;;12.60;99.90;;;;;;5061043;28;20036;-52
2021/10/29 16:17:20;;;;;;;5.40;4.03;;;12.40;99.90;;;;;;5060548;28;20123;-52
2021/10/29 16:19:46;;;;;;;4.38;3.97;;;12.40;99.90;;;;;;5061281;28;20042;-52
2021/10/29 16:22:35;;;;;;;5.55;3.38;;;12.40;99.90;;;;;;5060747;28;20481;-53
2021/10/29 16:27:39;;;;;;;5.65;3.75;;;12.30;99.90;;;;;;5060331;28;20028;-52
2021/10/29 16:30:05;;;;;;;;;;;12.30;99.90;;;;;;5059351;28;20477;-52
2021/10/29 16:35:39;;;;;;;5.57;3.50;;;12.20;99.90;;;;;;5032409;28;20047;-52
2021/10/29 16:38:09;;;;;;;5.60;4.45;;;12.20;99.90;;;;;;5031744;28;20551;-52
2021/10/29 16:40:36;;;;;;;6.10;5.30;;;12.10;99.90;;;;;;5046417;28;20580;-51
2021/10/29 16:43:02;;;;;;;8.85;6.65;;;12.10;99.90;;;;;;5058466;28;20034;-51
2021/10/29 16:45:28;;;;;;;6.20;5.10;;;12.00;99.90;;;;;;5058532;28;20079;-54
2021/10/29 16:47:54;;;;;;;5.38;4.88;;;12.00;99.90;;;;;;5059049;28;20481;-50
2021/10/29 16:50:20;;;;;;;4.65;4.20;;;12.00;99.90;;;;;;5053530;28;20031;-52
2021/10/29 16:52:47;;;;;;;6.28;4.22;;;12.00;99.90;;;;;;5057794;28;20033;-52
2021/10/29 16:55:13;;;;;;;4.78;4.25;;;12.00;99.90;;;;;;5056912;28;20021;-51
2021/10/29 16:57:39;;;;;;;6.13;4.20;;;11.90;99.90;;;;;;5058801;28;20040;-52
2021/10/29 17:00:07;;;;;;;7.82;4.90;;;11.90;99.90;;;;;;5057113;28;20090;-53
2021/10/29 17:02:33;;;;;;;6.88;4.60;;;12.00;99.90;;;;;;5059341;28;20041;-54
2021/10/29 17:04:58;;;;;;;5.43;4.65;;;11.90;99.90;;;;;;5058122;28;20574;-50
2021/10/29 17:07:24;;;;;;;12.05;5.53;;;11.90;99.90;;;;;;5057109;28;20572;-54
2021/10/29 17:09:51;;;;;;;6.13;5.38;;;11.90;99.90;;;;;;5060203;28;20056;-53
2021/10/29 17:12:17;;;;;;;9.75;5.65;;;11.90;99.90;;;;;;5056369;28;20016;-52
2021/10/29 17:14:43;;;;;;;6.38;5.28;;;11.90;99.90;;;;;;5058676;28;20035;-49